sensor_id;sensor_type;location;lat;lon;timestamp;P1;durP1;ratioP1;P2;durP2;ratioP2
38208;SDS011;24016;52.102;11.584;2022-08-19T00:00:36;24.83;;;22.33;;
38208;SDS011;24016;52.102;11.584;2022-08-19T00:03:06;25.42;;;22.83;;
38208;SDS011;24016;52.102;11.584;2022-08-19T00:05:32;25.63;;;23.23;;
38208;SDS011;24016;52.102;11.584;2022-08-19T00:07:59;26.10;;;23.58;;
38208;SDS011;24016;52.102;11.584;2022-08-19T00:10:27;27.00;;;24.38;;
38208;SDS011;24016;52.102;11.584;2022-08-19T00:12:53;26.23;;;23.52;;
38208;SDS011;24016;52.102;11.584;2022-08-19T00:15:20;27.15;;;24.55;;
38208;SDS011;24016;52.102;11.584;2022-08-19T00:17:47;29.80;;;26.58;;
38208;SDS011;24016;52.102;11.584;2022-08-19T00:20:13;33.63;;;27.45;;
38208;SDS011;24016;52.102;11.584;2022-08-19T00:22:42;31.05;;;27.92;;
38208;SDS011;24016;52.102;11.584;2022-08-19T00:25:09;32.85;;;29.45;;
38208;SDS011;24016;52.102;11.584;2022-08-19T00:27:36;35.15;;;31.48;;
38208;SDS011;24016;52.102;11.584;2022-08-19T00:30:03;37.13;;;33.08;;
38208;SDS011;24016;52.102;11.584;2022-08-19T00:32:29;46.63;;;37.22;;
38208;SDS011;24016;52.102;11.584;2022-08-19T00:34:55;47.05;;;37.88;;
38208;SDS011;24016;52.102;11.584;2022-08-19T00:37:21;51.05;;;39.85;;
38208;SDS011;24016;52.102;11.584;2022-08-19T00:39:51;56.22;;;42.03;;
38208;SDS011;24016;52.102;11.584;2022-08-19T00:42:17;53.10;;;42.85;;
38208;SDS011;24016;52.102;11.584;2022-08-19T00:44:44;50.05;;;41.60;;
38208;SDS011;24016;52.102;11.584;2022-08-19T00:47:10;61.17;;;45.30;;
38208;SDS011;24016;52.102;11.584;2022-08-19T00:49:57;65.20;;;46.75;;
38208;SDS011;24016;52.102;11.584;2022-08-19T00:52:24;64.22;;;46.30;;
38208;SDS011;24016;52.102;11.584;2022-08-19T00:54:54;72.63;;;46.45;;
38208;SDS011;24016;52.102;11.584;2022-08-19T00:57:25;77.10;;;49.65;;
38208;SDS011;24016;52.102;11.584;2022-08-19T00:59:57;73.07;;;50.17;;
38208;SDS011;24016;52.102;11.584;2022-08-19T01:02:24;65.45;;;48.13;;
38208;SDS011;24016;52.102;11.584;2022-08-19T01:04:51;81.85;;;52.88;;
38208;SDS011;24016;52.102;11.584;2022-08-19T01:07:17;69.22;;;50.30;;
38208;SDS011;24016;52.102;11.584;2022-08-19T01:09:43;63.58;;;48.28;;
38208;SDS011;24016;52.102;11.584;2022-08-19T01:12:12;69.25;;;50.70;;
38208;SDS011;24016;52.102;11.584;2022-08-19T01:14:39;82.95;;;53.78;;
38208;SDS011;24016;52.102;11.584;2022-08-19T01:17:05;75.97;;;51.63;;
38208;SDS011;24016;52.102;11.584;2022-08-19T01:19:37;68.50;;;52.47;;
38208;SDS011;24016;52.102;11.584;2022-08-19T01:22:11;81.40;;;54.10;;
38208;SDS011;24016;52.102;11.584;2022-08-19T01:24:43;80.95;;;53.70;;
38208;SDS011;24016;52.102;11.584;2022-08-19T01:27:09;80.35;;;53.08;;
38208;SDS011;24016;52.102;11.584;2022-08-19T01:29:37;85.95;;;56.97;;
38208;SDS011;24016;52.102;11.584;2022-08-19T01:34:40;74.47;;;53.30;;
38208;SDS011;24016;52.102;11.584;2022-08-19T01:37:10;73.93;;;52.90;;
38208;SDS011;24016;52.102;11.584;2022-08-19T01:39:37;82.57;;;53.80;;
38208;SDS011;24016;52.102;11.584;2022-08-19T01:42:04;73.30;;;53.90;;
38208;SDS011;24016;52.102;11.584;2022-08-19T01:44:32;86.07;;;56.10;;
38208;SDS011;24016;52.102;11.584;2022-08-19T01:46:57;61.55;;;50.28;;
38208;SDS011;24016;52.102;11.584;2022-08-19T01:49:23;80.90;;;53.75;;
38208;SDS011;24016;52.102;11.584;2022-08-19T01:51:51;78.65;;;54.42;;
38208;SDS011;24016;52.102;11.584;2022-08-19T01:54:18;73.70;;;51.05;;
38208;SDS011;24016;52.102;11.584;2022-08-19T01:56:45;74.90;;;51.95;;
38208;SDS011;24016;52.102;11.584;2022-08-19T01:59:12;88.57;;;55.65;;
38208;SDS011;24016;52.102;11.584;2022-08-19T02:01:40;88.72;;;55.10;;
38208;SDS011;24016;52.102;11.584;2022-08-19T02:04:06;78.47;;;52.60;;
38208;SDS011;24016;52.102;11.584;2022-08-19T02:06:32;82.78;;;53.90;;
38208;SDS011;24016;52.102;11.584;2022-08-19T02:08:58;83.15;;;54.17;;
38208;SDS011;24016;52.102;11.584;2022-08-19T02:11:25;72.80;;;51.85;;
38208;SDS011;24016;52.102;11.584;2022-08-19T02:13:53;78.88;;;52.22;;
38208;SDS011;24016;52.102;11.584;2022-08-19T02:16:19;65.18;;;47.47;;
38208;SDS011;24016;52.102;11.584;2022-08-19T02:18:46;81.05;;;53.60;;
38208;SDS011;24016;52.102;11.584;2022-08-19T02:21:16;82.70;;;54.03;;
38208;SDS011;24016;52.102;11.584;2022-08-19T02:23:42;96.72;;;57.08;;
38208;SDS011;24016;52.102;11.584;2022-08-19T02:26:08;83.03;;;53.00;;
38208;SDS011;24016;52.102;11.584;2022-08-19T02:28:34;78.53;;;53.13;;
38208;SDS011;24016;52.102;11.584;2022-08-19T02:31:01;71.50;;;49.72;;
38208;SDS011;24016;52.102;11.584;2022-08-19T02:33:27;94.68;;;55.30;;
38208;SDS011;24016;52.102;11.584;2022-08-19T02:35:54;74.88;;;50.63;;
38208;SDS011;24016;52.102;11.584;2022-08-19T02:38:19;92.45;;;55.05;;
38208;SDS011;24016;52.102;11.584;2022-08-19T02:40:52;67.18;;;47.28;;
38208;SDS011;24016;52.102;11.584;2022-08-19T02:43:20;66.72;;;47.72;;
38208;SDS011;24016;52.102;11.584;2022-08-19T02:45:48;76.57;;;50.58;;
38208;SDS011;24016;52.102;11.584;2022-08-19T02:48:18;63.15;;;48.08;;
38208;SDS011;24016;52.102;11.584;2022-08-19T02:50:45;78.83;;;52.90;;
38208;SDS011;24016;52.102;11.584;2022-08-19T02:53:11;81.53;;;51.17;;
38208;SDS011;24016;52.102;11.584;2022-08-19T02:55:42;65.32;;;47.17;;
38208;SDS011;24016;52.102;11.584;2022-08-19T02:58:09;64.45;;;46.90;;
38208;SDS011;24016;52.102;11.584;2022-08-19T03:00:35;72.05;;;49.47;;
38208;SDS011;24016;52.102;11.584;2022-08-19T03:05:32;78.97;;;49.60;;
38208;SDS011;24016;52.102;11.584;2022-08-19T03:07:59;85.50;;;50.38;;
38208;SDS011;24016;52.102;11.584;2022-08-19T03:10:24;59.53;;;45.78;;
38208;SDS011;24016;52.102;11.584;2022-08-19T03:12:50;69.35;;;47.72;;
38208;SDS011;24016;52.102;11.584;2022-08-19T03:15:15;80.75;;;51.10;;
38208;SDS011;24016;52.102;11.584;2022-08-19T03:17:41;65.90;;;46.20;;
38208;SDS011;24016;52.102;11.584;2022-08-19T03:20:06;68.75;;;47.40;;
38208;SDS011;24016;52.102;11.584;2022-08-19T03:22:32;62.83;;;47.10;;
38208;SDS011;24016;52.102;11.584;2022-08-19T03:24:58;74.20;;;47.00;;
38208;SDS011;24016;52.102;11.584;2022-08-19T03:27:24;76.47;;;48.22;;
38208;SDS011;24016;52.102;11.584;2022-08-19T03:29:50;61.42;;;45.08;;
38208;SDS011;24016;52.102;11.584;2022-08-19T03:32:16;61.25;;;45.15;;
38208;SDS011;24016;52.102;11.584;2022-08-19T03:34:41;56.15;;;44.00;;
38208;SDS011;24016;52.102;11.584;2022-08-19T03:37:08;58.35;;;45.08;;
38208;SDS011;24016;52.102;11.584;2022-08-19T03:39:37;56.25;;;44.15;;
38208;SDS011;24016;52.102;11.584;2022-08-19T03:42:03;59.53;;;42.75;;
38208;SDS011;24016;52.102;11.584;2022-08-19T03:44:30;53.25;;;42.38;;
38208;SDS011;24016;52.102;11.584;2022-08-19T03:46:57;54.83;;;43.92;;
38208;SDS011;24016;52.102;11.584;2022-08-19T03:49:25;61.22;;;44.58;;
38208;SDS011;24016;52.102;11.584;2022-08-19T03:51:52;56.90;;;44.45;;
38208;SDS011;24016;52.102;11.584;2022-08-19T03:54:21;51.50;;;41.47;;
38208;SDS011;24016;52.102;11.584;2022-08-19T03:56:49;53.35;;;41.72;;
38208;SDS011;24016;52.102;11.584;2022-08-19T03:59:17;60.33;;;42.70;;
38208;SDS011;24016;52.102;11.584;2022-08-19T04:01:47;51.67;;;41.97;;
38208;SDS011;24016;52.102;11.584;2022-08-19T04:04:12;49.15;;;40.55;;
38208;SDS011;24016;52.102;11.584;2022-08-19T04:06:38;54.80;;;41.67;;
38208;SDS011;24016;52.102;11.584;2022-08-19T04:09:05;50.95;;;41.28;;
38208;SDS011;24016;52.102;11.584;2022-08-19T04:11:43;49.40;;;39.67;;
38208;SDS011;24016;52.102;11.584;2022-08-19T04:14:17;47.80;;;38.30;;
38208;SDS011;24016;52.102;11.584;2022-08-19T04:16:47;48.30;;;38.53;;
38208;SDS011;24016;52.102;11.584;2022-08-19T04:19:14;43.22;;;37.85;;
38208;SDS011;24016;52.102;11.584;2022-08-19T04:21:42;43.72;;;36.47;;
38208;SDS011;24016;52.102;11.584;2022-08-19T04:24:10;44.75;;;35.58;;
38208;SDS011;24016;52.102;11.584;2022-08-19T04:26:36;47.28;;;34.88;;
38208;SDS011;24016;52.102;11.584;2022-08-19T04:29:07;42.15;;;35.10;;
38208;SDS011;24016;52.102;11.584;2022-08-19T04:31:35;42.85;;;34.67;;
38208;SDS011;24016;52.102;11.584;2022-08-19T04:34:02;40.78;;;34.72;;
38208;SDS011;24016;52.102;11.584;2022-08-19T04:36:32;38.00;;;33.53;;
38208;SDS011;24016;52.102;11.584;2022-08-19T04:39:03;36.55;;;32.35;;
38208;SDS011;24016;52.102;11.584;2022-08-19T04:41:32;37.78;;;32.25;;
38208;SDS011;24016;52.102;11.584;2022-08-19T04:44:17;36.13;;;32.20;;
38208;SDS011;24016;52.102;11.584;2022-08-19T04:46:43;36.65;;;32.47;;
38208;SDS011;24016;52.102;11.584;2022-08-19T04:49:13;35.35;;;30.50;;
38208;SDS011;24016;52.102;11.584;2022-08-19T04:51:40;36.20;;;30.92;;
38208;SDS011;24016;52.102;11.584;2022-08-19T04:54:07;33.90;;;28.98;;
38208;SDS011;24016;52.102;11.584;2022-08-19T04:56:33;32.60;;;28.20;;
38208;SDS011;24016;52.102;11.584;2022-08-19T04:58:59;32.92;;;27.98;;
38208;SDS011;24016;52.102;11.584;2022-08-19T05:01:28;33.17;;;26.77;;
38208;SDS011;24016;52.102;11.584;2022-08-19T05:03:55;30.05;;;26.95;;
38208;SDS011;24016;52.102;11.584;2022-08-19T05:06:21;30.80;;;26.65;;
38208;SDS011;24016;52.102;11.584;2022-08-19T05:08:47;28.73;;;25.60;;
38208;SDS011;24016;52.102;11.584;2022-08-19T05:11:47;30.45;;;24.52;;
38208;SDS011;24016;52.102;11.584;2022-08-19T05:14:07;28.73;;;25.75;;
38208;SDS011;24016;52.102;11.584;2022-08-19T05:16:33;31.02;;;25.33;;
38208;SDS011;24016;52.102;11.584;2022-08-19T05:18:59;29.10;;;24.85;;
38208;SDS011;24016;52.102;11.584;2022-08-19T05:21:43;29.90;;;25.02;;
38208;SDS011;24016;52.102;11.584;2022-08-19T05:24:28;32.78;;;25.02;;
38208;SDS011;24016;52.102;11.584;2022-08-19T05:26:55;31.98;;;23.73;;
38208;SDS011;24016;52.102;11.584;2022-08-19T05:29:22;27.45;;;22.42;;
38208;SDS011;24016;52.102;11.584;2022-08-19T05:31:50;32.72;;;23.80;;
38208;SDS011;24016;52.102;11.584;2022-08-19T05:34:17;27.23;;;23.40;;
38208;SDS011;24016;52.102;11.584;2022-08-19T05:36:46;31.17;;;22.77;;
38208;SDS011;24016;52.102;11.584;2022-08-19T05:39:15;26.42;;;22.73;;
38208;SDS011;24016;52.102;11.584;2022-08-19T05:41:43;27.92;;;22.80;;
38208;SDS011;24016;52.102;11.584;2022-08-19T05:44:15;28.60;;;23.52;;
38208;SDS011;24016;52.102;11.584;2022-08-19T05:46:43;26.52;;;22.05;;
38208;SDS011;24016;52.102;11.584;2022-08-19T05:49:11;26.42;;;22.33;;
38208;SDS011;24016;52.102;11.584;2022-08-19T05:51:38;24.98;;;22.30;;
38208;SDS011;24016;52.102;11.584;2022-08-19T05:54:04;28.10;;;23.08;;
38208;SDS011;24016;52.102;11.584;2022-08-19T05:56:32;27.73;;;23.38;;
38208;SDS011;24016;52.102;11.584;2022-08-19T05:59:01;26.50;;;23.10;;
38208;SDS011;24016;52.102;11.584;2022-08-19T06:01:27;25.20;;;21.70;;
38208;SDS011;24016;52.102;11.584;2022-08-19T06:03:53;27.73;;;22.42;;
38208;SDS011;24016;52.102;11.584;2022-08-19T06:06:19;27.52;;;22.50;;
38208;SDS011;24016;52.102;11.584;2022-08-19T06:08:45;25.08;;;22.33;;
38208;SDS011;24016;52.102;11.584;2022-08-19T06:11:31;29.08;;;22.35;;
38208;SDS011;24016;52.102;11.584;2022-08-19T06:14:06;26.45;;;22.88;;
38208;SDS011;24016;52.102;11.584;2022-08-19T06:16:35;27.67;;;23.13;;
38208;SDS011;24016;52.102;11.584;2022-08-19T06:19:04;25.63;;;22.15;;
38208;SDS011;24016;52.102;11.584;2022-08-19T06:21:32;25.95;;;22.52;;
38208;SDS011;24016;52.102;11.584;2022-08-19T06:23:59;29.23;;;21.85;;
38208;SDS011;24016;52.102;11.584;2022-08-19T06:26:25;24.77;;;21.52;;
38208;SDS011;24016;52.102;11.584;2022-08-19T06:28:51;26.17;;;21.67;;
38208;SDS011;24016;52.102;11.584;2022-08-19T06:31:18;24.48;;;20.77;;
38208;SDS011;24016;52.102;11.584;2022-08-19T06:33:46;32.20;;;22.48;;
38208;SDS011;24016;52.102;11.584;2022-08-19T06:36:20;25.13;;;22.00;;
38208;SDS011;24016;52.102;11.584;2022-08-19T06:38:51;29.42;;;22.20;;
38208;SDS011;24016;52.102;11.584;2022-08-19T06:41:17;28.75;;;22.55;;
38208;SDS011;24016;52.102;11.584;2022-08-19T06:43:43;29.33;;;21.85;;
38208;SDS011;24016;52.102;11.584;2022-08-19T06:46:10;25.10;;;22.38;;
38208;SDS011;24016;52.102;11.584;2022-08-19T06:48:37;27.58;;;22.60;;
38208;SDS011;24016;52.102;11.584;2022-08-19T06:51:03;28.20;;;23.15;;
38208;SDS011;24016;52.102;11.584;2022-08-19T06:53:30;26.27;;;22.85;;
38208;SDS011;24016;52.102;11.584;2022-08-19T06:55:57;27.90;;;23.10;;
38208;SDS011;24016;52.102;11.584;2022-08-19T06:58:26;26.38;;;22.77;;
38208;SDS011;24016;52.102;11.584;2022-08-19T07:01:01;27.95;;;23.08;;
38208;SDS011;24016;52.102;11.584;2022-08-19T07:03:31;29.55;;;23.75;;
38208;SDS011;24016;52.102;11.584;2022-08-19T07:06:11;32.97;;;24.90;;
38208;SDS011;24016;52.102;11.584;2022-08-19T07:08:40;28.05;;;25.23;;
38208;SDS011;24016;52.102;11.584;2022-08-19T07:11:08;28.92;;;25.73;;
38208;SDS011;24016;52.102;11.584;2022-08-19T07:13:36;29.63;;;26.45;;
38208;SDS011;24016;52.102;11.584;2022-08-19T07:16:06;32.40;;;26.67;;
38208;SDS011;24016;52.102;11.584;2022-08-19T07:18:32;30.27;;;27.05;;
38208;SDS011;24016;52.102;11.584;2022-08-19T07:21:05;30.35;;;26.95;;
38208;SDS011;24016;52.102;11.584;2022-08-19T07:23:33;33.13;;;28.38;;
38208;SDS011;24016;52.102;11.584;2022-08-19T07:26:10;35.10;;;28.73;;
38208;SDS011;24016;52.102;11.584;2022-08-19T07:28:42;34.25;;;28.10;;
38208;SDS011;24016;52.102;11.584;2022-08-19T07:31:10;34.42;;;30.00;;
38208;SDS011;24016;52.102;11.584;2022-08-19T07:33:43;37.72;;;30.92;;
38208;SDS011;24016;52.102;11.584;2022-08-19T07:36:10;35.33;;;30.13;;
38208;SDS011;24016;52.102;11.584;2022-08-19T07:38:38;38.70;;;32.10;;
38208;SDS011;24016;52.102;11.584;2022-08-19T07:41:06;39.22;;;32.47;;
38208;SDS011;24016;52.102;11.584;2022-08-19T07:43:32;37.78;;;31.20;;
38208;SDS011;24016;52.102;11.584;2022-08-19T07:45:57;37.15;;;30.05;;
38208;SDS011;24016;52.102;11.584;2022-08-19T07:48:26;39.83;;;31.38;;
38208;SDS011;24016;52.102;11.584;2022-08-19T07:50:57;34.85;;;29.77;;
38208;SDS011;24016;52.102;11.584;2022-08-19T07:53:27;34.97;;;28.92;;
38208;SDS011;24016;52.102;11.584;2022-08-19T07:55:54;36.85;;;28.27;;
38208;SDS011;24016;52.102;11.584;2022-08-19T07:58:21;34.22;;;28.83;;
38208;SDS011;24016;52.102;11.584;2022-08-19T08:00:48;36.78;;;29.58;;
38208;SDS011;24016;52.102;11.584;2022-08-19T08:03:16;32.40;;;27.25;;
38208;SDS011;24016;52.102;11.584;2022-08-19T08:05:44;32.92;;;26.92;;
38208;SDS011;24016;52.102;11.584;2022-08-19T08:08:29;34.05;;;27.33;;
38208;SDS011;24016;52.102;11.584;2022-08-19T08:11:15;29.33;;;26.02;;
38208;SDS011;24016;52.102;11.584;2022-08-19T08:13:42;35.45;;;27.08;;
38208;SDS011;24016;52.102;11.584;2022-08-19T08:16:08;31.55;;;26.38;;
38208;SDS011;24016;52.102;11.584;2022-08-19T08:18:34;37.80;;;26.80;;
38208;SDS011;24016;52.102;11.584;2022-08-19T08:21:06;32.53;;;26.50;;
38208;SDS011;24016;52.102;11.584;2022-08-19T08:23:33;33.40;;;26.02;;
38208;SDS011;24016;52.102;11.584;2022-08-19T08:25:58;31.40;;;25.42;;
38208;SDS011;24016;52.102;11.584;2022-08-19T08:28:27;30.33;;;26.10;;
38208;SDS011;24016;52.102;11.584;2022-08-19T08:30:54;32.00;;;24.70;;
38208;SDS011;24016;52.102;11.584;2022-08-19T08:33:21;29.90;;;24.70;;
38208;SDS011;24016;52.102;11.584;2022-08-19T08:35:48;27.17;;;23.40;;
38208;SDS011;24016;52.102;11.584;2022-08-19T08:38:14;29.42;;;23.73;;
38208;SDS011;24016;52.102;11.584;2022-08-19T08:40:45;31.55;;;23.30;;
38208;SDS011;24016;52.102;11.584;2022-08-19T08:43:28;25.90;;;20.42;;
38208;SDS011;24016;52.102;11.584;2022-08-19T08:48:50;22.65;;;18.27;;
38208;SDS011;24016;52.102;11.584;2022-08-19T08:51:34;25.48;;;19.30;;
38208;SDS011;24016;52.102;11.584;2022-08-19T08:54:04;22.55;;;18.17;;
38208;SDS011;24016;52.102;11.584;2022-08-19T08:56:32;23.98;;;18.42;;
38208;SDS011;24016;52.102;11.584;2022-08-19T08:59:00;24.92;;;17.77;;
38208;SDS011;24016;52.102;11.584;2022-08-19T09:01:33;22.02;;;17.60;;
38208;SDS011;24016;52.102;11.584;2022-08-19T09:04:02;24.33;;;18.92;;
38208;SDS011;24016;52.102;11.584;2022-08-19T09:09:04;22.17;;;18.58;;
38208;SDS011;24016;52.102;11.584;2022-08-19T09:11:44;25.88;;;19.95;;
38208;SDS011;24016;52.102;11.584;2022-08-19T09:14:36;25.90;;;18.83;;
38208;SDS011;24016;52.102;11.584;2022-08-19T09:19:54;22.70;;;18.90;;
38208;SDS011;24016;52.102;11.584;2022-08-19T09:22:21;21.55;;;18.85;;
38208;SDS011;24016;52.102;11.584;2022-08-19T09:24:50;21.83;;;18.38;;
38208;SDS011;24016;52.102;11.584;2022-08-19T09:29:45;22.35;;;18.65;;
38208;SDS011;24016;52.102;11.584;2022-08-19T09:32:13;24.17;;;17.60;;
38208;SDS011;24016;52.102;11.584;2022-08-19T09:34:39;19.85;;;15.80;;
38208;SDS011;24016;52.102;11.584;2022-08-19T09:37:04;19.38;;;16.77;;
38208;SDS011;24016;52.102;11.584;2022-08-19T09:39:31;19.60;;;17.42;;
38208;SDS011;24016;52.102;11.584;2022-08-19T09:41:56;20.48;;;16.55;;
38208;SDS011;24016;52.102;11.584;2022-08-19T09:44:22;19.70;;;17.17;;
38208;SDS011;24016;52.102;11.584;2022-08-19T09:46:48;20.42;;;16.65;;
38208;SDS011;24016;52.102;11.584;2022-08-19T09:49:14;19.15;;;16.60;;
38208;SDS011;24016;52.102;11.584;2022-08-19T09:51:49;18.10;;;16.10;;
38208;SDS011;24016;52.102;11.584;2022-08-19T09:54:15;18.92;;;16.40;;
38208;SDS011;24016;52.102;11.584;2022-08-19T09:56:41;18.75;;;16.35;;
38208;SDS011;24016;52.102;11.584;2022-08-19T09:59:07;19.83;;;16.50;;
38208;SDS011;24016;52.102;11.584;2022-08-19T10:01:34;20.75;;;16.60;;
38208;SDS011;24016;52.102;11.584;2022-08-19T10:04:00;19.40;;;16.05;;
38208;SDS011;24016;52.102;11.584;2022-08-19T10:06:29;18.25;;;16.25;;
38208;SDS011;24016;52.102;11.584;2022-08-19T10:08:58;20.30;;;16.58;;
38208;SDS011;24016;52.102;11.584;2022-08-19T10:11:24;18.60;;;15.95;;
38208;SDS011;24016;52.102;11.584;2022-08-19T10:13:51;21.05;;;17.13;;
38208;SDS011;24016;52.102;11.584;2022-08-19T10:16:18;19.42;;;16.38;;
38208;SDS011;24016;52.102;11.584;2022-08-19T10:18:48;18.00;;;15.80;;
38208;SDS011;24016;52.102;11.584;2022-08-19T10:21:16;18.77;;;15.88;;
38208;SDS011;24016;52.102;11.584;2022-08-19T10:23:47;21.02;;;15.05;;
38208;SDS011;24016;52.102;11.584;2022-08-19T10:26:16;17.52;;;14.18;;
38208;SDS011;24016;52.102;11.584;2022-08-19T10:28:47;17.65;;;15.05;;
38208;SDS011;24016;52.102;11.584;2022-08-19T10:31:14;17.20;;;15.38;;
38208;SDS011;24016;52.102;11.584;2022-08-19T10:33:42;20.50;;;15.07;;
38208;SDS011;24016;52.102;11.584;2022-08-19T10:36:10;18.40;;;15.15;;
38208;SDS011;24016;52.102;11.584;2022-08-19T10:38:42;19.70;;;16.10;;
38208;SDS011;24016;52.102;11.584;2022-08-19T10:41:14;18.08;;;15.05;;
38208;SDS011;24016;52.102;11.584;2022-08-19T10:43:42;18.25;;;14.13;;
38208;SDS011;24016;52.102;11.584;2022-08-19T10:46:10;16.30;;;13.70;;
38208;SDS011;24016;52.102;11.584;2022-08-19T10:48:37;18.48;;;13.50;;
38208;SDS011;24016;52.102;11.584;2022-08-19T10:51:03;16.38;;;13.40;;
38208;SDS011;24016;52.102;11.584;2022-08-19T10:53:48;19.73;;;14.05;;
38208;SDS011;24016;52.102;11.584;2022-08-19T10:56:14;18.00;;;13.60;;
38208;SDS011;24016;52.102;11.584;2022-08-19T10:58:58;16.45;;;13.88;;
38208;SDS011;24016;52.102;11.584;2022-08-19T11:01:24;14.48;;;12.57;;
38208;SDS011;24016;52.102;11.584;2022-08-19T11:03:51;16.30;;;13.90;;
38208;SDS011;24016;52.102;11.584;2022-08-19T11:06:17;14.73;;;12.70;;
38208;SDS011;24016;52.102;11.584;2022-08-19T11:08:44;16.95;;;14.00;;
38208;SDS011;24016;52.102;11.584;2022-08-19T11:11:10;14.98;;;13.00;;
38208;SDS011;24016;52.102;11.584;2022-08-19T11:13:38;14.57;;;12.40;;
38208;SDS011;24016;52.102;11.584;2022-08-19T11:18:54;15.93;;;12.95;;
38208;SDS011;24016;52.102;11.584;2022-08-19T11:21:23;13.95;;;11.40;;
38208;SDS011;24016;52.102;11.584;2022-08-19T11:23:52;14.23;;;12.05;;
38208;SDS011;24016;52.102;11.584;2022-08-19T11:26:20;16.25;;;11.93;;
38208;SDS011;24016;52.102;11.584;2022-08-19T11:28:47;14.02;;;12.50;;
38208;SDS011;24016;52.102;11.584;2022-08-19T11:31:15;14.70;;;11.77;;
38208;SDS011;24016;52.102;11.584;2022-08-19T11:33:44;13.88;;;12.27;;
38208;SDS011;24016;52.102;11.584;2022-08-19T11:36:11;13.52;;;11.93;;
38208;SDS011;24016;52.102;11.584;2022-08-19T11:38:37;13.95;;;11.18;;
38208;SDS011;24016;52.102;11.584;2022-08-19T11:41:05;14.18;;;12.13;;
38208;SDS011;24016;52.102;11.584;2022-08-19T11:43:32;14.38;;;10.93;;
38208;SDS011;24016;52.102;11.584;2022-08-19T11:46:03;10.88;;;9.77;;
38208;SDS011;24016;52.102;11.584;2022-08-19T11:48:37;11.32;;;10.23;;
38208;SDS011;24016;52.102;11.584;2022-08-19T11:51:04;11.80;;;10.35;;
38208;SDS011;24016;52.102;11.584;2022-08-19T11:53:33;11.68;;;10.45;;
38208;SDS011;24016;52.102;11.584;2022-08-19T11:55:59;12.88;;;10.32;;
38208;SDS011;24016;52.102;11.584;2022-08-19T11:58:25;14.35;;;10.30;;
38208;SDS011;24016;52.102;11.584;2022-08-19T12:00:51;13.30;;;10.70;;
38208;SDS011;24016;52.102;11.584;2022-08-19T12:03:17;12.75;;;10.52;;
38208;SDS011;24016;52.102;11.584;2022-08-19T12:05:44;12.95;;;10.95;;
38208;SDS011;24016;52.102;11.584;2022-08-19T12:08:11;11.45;;;10.25;;
38208;SDS011;24016;52.102;11.584;2022-08-19T12:10:44;12.05;;;10.48;;
38208;SDS011;24016;52.102;11.584;2022-08-19T12:13:11;13.50;;;11.30;;
38208;SDS011;24016;52.102;11.584;2022-08-19T12:15:40;13.95;;;12.50;;
38208;SDS011;24016;52.102;11.584;2022-08-19T12:18:06;11.75;;;10.30;;
38208;SDS011;24016;52.102;11.584;2022-08-19T12:20:37;12.38;;;10.02;;
38208;SDS011;24016;52.102;11.584;2022-08-19T12:23:05;11.27;;;10.10;;
38208;SDS011;24016;52.102;11.584;2022-08-19T12:25:32;11.60;;;10.35;;
38208;SDS011;24016;52.102;11.584;2022-08-19T12:27:59;11.68;;;10.13;;
38208;SDS011;24016;52.102;11.584;2022-08-19T12:30:27;12.82;;;10.10;;
38208;SDS011;24016;52.102;11.584;2022-08-19T12:32:53;13.27;;;10.98;;
38208;SDS011;24016;52.102;11.584;2022-08-19T12:35:19;12.75;;;10.00;;
38208;SDS011;24016;52.102;11.584;2022-08-19T12:37:46;11.65;;;10.45;;
38208;SDS011;24016;52.102;11.584;2022-08-19T12:40:13;12.05;;;10.82;;
38208;SDS011;24016;52.102;11.584;2022-08-19T12:42:40;13.48;;;11.10;;
38208;SDS011;24016;52.102;11.584;2022-08-19T12:45:07;16.75;;;11.02;;
38208;SDS011;24016;52.102;11.584;2022-08-19T12:47:37;13.32;;;11.30;;
38208;SDS011;24016;52.102;11.584;2022-08-19T12:50:03;10.52;;;9.43;;
38208;SDS011;24016;52.102;11.584;2022-08-19T12:52:31;11.32;;;9.13;;
38208;SDS011;24016;52.102;11.584;2022-08-19T12:54:57;11.75;;;9.10;;
38208;SDS011;24016;52.102;11.584;2022-08-19T12:57:24;10.75;;;9.40;;
38208;SDS011;24016;52.102;11.584;2022-08-19T12:59:53;13.43;;;9.45;;
38208;SDS011;24016;52.102;11.584;2022-08-19T13:02:19;11.73;;;10.35;;
38208;SDS011;24016;52.102;11.584;2022-08-19T13:04:46;11.13;;;9.77;;
38208;SDS011;24016;52.102;11.584;2022-08-19T13:07:12;12.30;;;10.10;;
38208;SDS011;24016;52.102;11.584;2022-08-19T13:09:38;10.65;;;9.10;;
38208;SDS011;24016;52.102;11.584;2022-08-19T13:12:06;11.57;;;9.68;;
38208;SDS011;24016;52.102;11.584;2022-08-19T13:14:37;10.55;;;9.45;;
38208;SDS011;24016;52.102;11.584;2022-08-19T13:17:03;11.10;;;9.23;;
38208;SDS011;24016;52.102;11.584;2022-08-19T13:19:29;11.00;;;8.95;;
38208;SDS011;24016;52.102;11.584;2022-08-19T13:21:55;12.20;;;9.27;;
38208;SDS011;24016;52.102;11.584;2022-08-19T13:24:21;10.57;;;8.35;;
38208;SDS011;24016;52.102;11.584;2022-08-19T13:26:47;8.88;;;7.85;;
38208;SDS011;24016;52.102;11.584;2022-08-19T13:29:12;9.98;;;7.57;;
38208;SDS011;24016;52.102;11.584;2022-08-19T13:31:57;8.80;;;7.55;;
38208;SDS011;24016;52.102;11.584;2022-08-19T13:34:42;8.13;;;7.05;;
38208;SDS011;24016;52.102;11.584;2022-08-19T13:37:07;9.68;;;7.50;;
38208;SDS011;24016;52.102;11.584;2022-08-19T13:39:34;8.30;;;7.40;;
38208;SDS011;24016;52.102;11.584;2022-08-19T13:42:00;9.05;;;7.65;;
38208;SDS011;24016;52.102;11.584;2022-08-19T13:44:29;9.10;;;7.50;;
38208;SDS011;24016;52.102;11.584;2022-08-19T13:46:54;7.90;;;6.75;;
38208;SDS011;24016;52.102;11.584;2022-08-19T13:49:32;8.05;;;6.75;;
38208;SDS011;24016;52.102;11.584;2022-08-19T13:51:59;7.05;;;6.18;;
38208;SDS011;24016;52.102;11.584;2022-08-19T13:54:24;9.65;;;6.97;;
38208;SDS011;24016;52.102;11.584;2022-08-19T13:56:51;10.65;;;7.00;;
38208;SDS011;24016;52.102;11.584;2022-08-19T13:59:17;7.30;;;6.60;;
38208;SDS011;24016;52.102;11.584;2022-08-19T14:01:43;8.15;;;6.28;;
38208;SDS011;24016;52.102;11.584;2022-08-19T14:04:08;7.82;;;6.93;;
38208;SDS011;24016;52.102;11.584;2022-08-19T14:06:34;8.00;;;6.05;;
38208;SDS011;24016;52.102;11.584;2022-08-19T14:09:00;6.40;;;5.63;;
38208;SDS011;24016;52.102;11.584;2022-08-19T14:11:27;7.13;;;6.40;;
38208;SDS011;24016;52.102;11.584;2022-08-19T14:13:54;8.00;;;6.65;;
38208;SDS011;24016;52.102;11.584;2022-08-19T14:16:19;7.93;;;6.70;;
38208;SDS011;24016;52.102;11.584;2022-08-19T14:18:46;9.50;;;6.85;;
38208;SDS011;24016;52.102;11.584;2022-08-19T14:21:16;8.90;;;6.38;;
38208;SDS011;24016;52.102;11.584;2022-08-19T14:23:50;8.15;;;6.20;;
38208;SDS011;24016;52.102;11.584;2022-08-19T14:26:19;11.30;;;7.07;;
38208;SDS011;24016;52.102;11.584;2022-08-19T14:31:14;8.60;;;7.63;;
38208;SDS011;24016;52.102;11.584;2022-08-19T14:33:44;7.47;;;6.78;;
38208;SDS011;24016;52.102;11.584;2022-08-19T14:36:11;9.40;;;6.75;;
38208;SDS011;24016;52.102;11.584;2022-08-19T14:38:36;8.13;;;6.55;;